sensor_id;sensor_type;location;lat;lon;timestamp;P1;durP1;ratioP1;P2;durP2;ratioP2
13463;SDS011;6804;48.774;9.174;2022-07-22T00:01:31;6.40;;;4.90;;
13463;SDS011;6804;48.774;9.174;2022-07-22T00:03:58;5.00;;;4.50;;
13463;SDS011;6804;48.774;9.174;2022-07-22T00:06:27;5.68;;;4.90;;
13463;SDS011;6804;48.774;9.174;2022-07-22T00:08:57;6.10;;;5.32;;
13463;SDS011;6804;48.774;9.174;2022-07-22T00:11:25;7.45;;;5.05;;
13463;SDS011;6804;48.774;9.174;2022-07-22T00:13:53;5.68;;;4.90;;
13463;SDS011;6804;48.774;9.174;2022-07-22T00:16:20;5.03;;;4.53;;
13463;SDS011;6804;48.774;9.174;2022-07-22T00:18:48;5.65;;;5.15;;
13463;SDS011;6804;48.774;9.174;2022-07-22T00:21:15;6.13;;;5.20;;
13463;SDS011;6804;48.774;9.174;2022-07-22T00:23:42;5.78;;;4.88;;
13463;SDS011;6804;48.774;9.174;2022-07-22T00:26:10;5.40;;;4.85;;
13463;SDS011;6804;48.774;9.174;2022-07-22T00:28:39;5.47;;;4.97;;
13463;SDS011;6804;48.774;9.174;2022-07-22T00:31:09;6.37;;;5.77;;
13463;SDS011;6804;48.774;9.174;2022-07-22T00:33:36;5.72;;;5.10;;
13463;SDS011;6804;48.774;9.174;2022-07-22T00:36:03;7.07;;;5.88;;
13463;SDS011;6804;48.774;9.174;2022-07-22T00:38:31;6.18;;;5.20;;
13463;SDS011;6804;48.774;9.174;2022-07-22T00:41:01;5.47;;;5.00;;
13463;SDS011;6804;48.774;9.174;2022-07-22T00:43:54;6.35;;;5.03;;
13463;SDS011;6804;48.774;9.174;2022-07-22T00:46:24;6.57;;;5.10;;
13463;SDS011;6804;48.774;9.174;2022-07-22T00:48:52;5.65;;;5.20;;
13463;SDS011;6804;48.774;9.174;2022-07-22T00:51:28;7.77;;;5.80;;
13463;SDS011;6804;48.774;9.174;2022-07-22T00:53:56;5.90;;;5.30;;
13463;SDS011;6804;48.774;9.174;2022-07-22T00:56:24;5.50;;;5.00;;
13463;SDS011;6804;48.774;9.174;2022-07-22T00:58:54;5.77;;;5.23;;
13463;SDS011;6804;48.774;9.174;2022-07-22T01:01:23;5.43;;;4.93;;
13463;SDS011;6804;48.774;9.174;2022-07-22T01:03:54;5.47;;;5.00;;
13463;SDS011;6804;48.774;9.174;2022-07-22T01:06:23;8.03;;;5.80;;
13463;SDS011;6804;48.774;9.174;2022-07-22T01:08:53;5.60;;;5.00;;
13463;SDS011;6804;48.774;9.174;2022-07-22T01:11:23;5.70;;;5.20;;
13463;SDS011;6804;48.774;9.174;2022-07-22T01:13:55;6.33;;;5.70;;
13463;SDS011;6804;48.774;9.174;2022-07-22T01:16:24;7.33;;;6.33;;
13463;SDS011;6804;48.774;9.174;2022-07-22T01:18:55;6.00;;;5.30;;
13463;SDS011;6804;48.774;9.174;2022-07-22T01:21:27;8.07;;;5.43;;
13463;SDS011;6804;48.774;9.174;2022-07-22T01:23:54;5.60;;;5.10;;
13463;SDS011;6804;48.774;9.174;2022-07-22T01:26:22;6.70;;;5.33;;
13463;SDS011;6804;48.774;9.174;2022-07-22T01:28:50;7.17;;;5.20;;
13463;SDS011;6804;48.774;9.174;2022-07-22T01:31:17;7.88;;;5.22;;
13463;SDS011;6804;48.774;9.174;2022-07-22T01:33:45;7.03;;;5.33;;
13463;SDS011;6804;48.774;9.174;2022-07-22T01:36:14;7.47;;;5.50;;
13463;SDS011;6804;48.774;9.174;2022-07-22T01:38:43;5.70;;;5.20;;
13463;SDS011;6804;48.774;9.174;2022-07-22T01:41:16;6.03;;;5.43;;
13463;SDS011;6804;48.774;9.174;2022-07-22T01:43:46;5.67;;;5.00;;
13463;SDS011;6804;48.774;9.174;2022-07-22T01:46:16;5.60;;;5.10;;
13463;SDS011;6804;48.774;9.174;2022-07-22T01:48:43;6.47;;;5.70;;
13463;SDS011;6804;48.774;9.174;2022-07-22T01:51:11;5.83;;;5.23;;
13463;SDS011;6804;48.774;9.174;2022-07-22T01:53:39;6.77;;;5.20;;
13463;SDS011;6804;48.774;9.174;2022-07-22T01:56:09;6.13;;;4.93;;
13463;SDS011;6804;48.774;9.174;2022-07-22T01:58:36;5.83;;;5.23;;
13463;SDS011;6804;48.774;9.174;2022-07-22T02:01:04;5.50;;;5.00;;
13463;SDS011;6804;48.774;9.174;2022-07-22T02:03:31;5.93;;;5.33;;
13463;SDS011;6804;48.774;9.174;2022-07-22T02:05:59;7.00;;;6.30;;
13463;SDS011;6804;48.774;9.174;2022-07-22T02:08:26;6.40;;;5.30;;
13463;SDS011;6804;48.774;9.174;2022-07-22T02:10:56;7.80;;;5.77;;
13463;SDS011;6804;48.774;9.174;2022-07-22T02:13:27;6.13;;;5.53;;
13463;SDS011;6804;48.774;9.174;2022-07-22T02:15:54;5.97;;;5.10;;
13463;SDS011;6804;48.774;9.174;2022-07-22T02:18:22;6.60;;;5.50;;
13463;SDS011;6804;48.774;9.174;2022-07-22T02:20:50;6.17;;;5.57;;
13463;SDS011;6804;48.774;9.174;2022-07-22T02:23:17;8.20;;;5.90;;
13463;SDS011;6804;48.774;9.174;2022-07-22T02:25:45;5.80;;;5.20;;
13463;SDS011;6804;48.774;9.174;2022-07-22T02:28:12;6.07;;;5.50;;
13463;SDS011;6804;48.774;9.174;2022-07-22T02:30:41;7.13;;;5.60;;
13463;SDS011;6804;48.774;9.174;2022-07-22T02:33:08;5.73;;;5.13;;
13463;SDS011;6804;48.774;9.174;2022-07-22T02:35:35;6.20;;;5.60;;
13463;SDS011;6804;48.774;9.174;2022-07-22T02:38:03;5.73;;;5.23;;
13463;SDS011;6804;48.774;9.174;2022-07-22T02:40:33;5.90;;;5.33;;
13463;SDS011;6804;48.774;9.174;2022-07-22T02:43:00;6.37;;;5.60;;
13463;SDS011;6804;48.774;9.174;2022-07-22T02:45:31;6.00;;;5.40;;
13463;SDS011;6804;48.774;9.174;2022-07-22T02:47:59;6.00;;;5.40;;
13463;SDS011;6804;48.774;9.174;2022-07-22T02:50:28;6.87;;;5.53;;
13463;SDS011;6804;48.774;9.174;2022-07-22T02:52:57;7.43;;;6.83;;
13463;SDS011;6804;48.774;9.174;2022-07-22T02:55:25;7.37;;;6.67;;
13463;SDS011;6804;48.774;9.174;2022-07-22T02:58:03;7.63;;;6.77;;
13463;SDS011;6804;48.774;9.174;2022-07-22T03:00:33;7.30;;;6.43;;
13463;SDS011;6804;48.774;9.174;2022-07-22T03:03:02;7.87;;;6.73;;
13463;SDS011;6804;48.774;9.174;2022-07-22T03:05:29;7.83;;;6.77;;
13463;SDS011;6804;48.774;9.174;2022-07-22T03:07:56;10.60;;;7.33;;
13463;SDS011;6804;48.774;9.174;2022-07-22T03:10:23;7.60;;;6.80;;
13463;SDS011;6804;48.774;9.174;2022-07-22T03:12:53;7.77;;;6.97;;
13463;SDS011;6804;48.774;9.174;2022-07-22T03:15:21;8.37;;;7.10;;
13463;SDS011;6804;48.774;9.174;2022-07-22T03:17:48;9.83;;;7.20;;
13463;SDS011;6804;48.774;9.174;2022-07-22T03:20:20;7.37;;;6.50;;
13463;SDS011;6804;48.774;9.174;2022-07-22T03:22:47;7.77;;;6.97;;
13463;SDS011;6804;48.774;9.174;2022-07-22T03:25:14;7.87;;;6.50;;
13463;SDS011;6804;48.774;9.174;2022-07-22T03:27:44;7.87;;;7.10;;
13463;SDS011;6804;48.774;9.174;2022-07-22T03:30:13;7.97;;;7.17;;
13463;SDS011;6804;48.774;9.174;2022-07-22T03:32:42;8.27;;;7.50;;
13463;SDS011;6804;48.774;9.174;2022-07-22T03:35:11;8.37;;;7.00;;
13463;SDS011;6804;48.774;9.174;2022-07-22T03:37:40;8.90;;;8.00;;
13463;SDS011;6804;48.774;9.174;2022-07-22T03:40:10;7.70;;;7.10;;
13463;SDS011;6804;48.774;9.174;2022-07-22T03:42:41;8.77;;;7.10;;
13463;SDS011;6804;48.774;9.174;2022-07-22T03:45:09;8.30;;;7.60;;
13463;SDS011;6804;48.774;9.174;2022-07-22T03:47:42;8.10;;;7.30;;
13463;SDS011;6804;48.774;9.174;2022-07-22T03:50:09;8.57;;;7.60;;
13463;SDS011;6804;48.774;9.174;2022-07-22T03:52:40;8.33;;;7.53;;
13463;SDS011;6804;48.774;9.174;2022-07-22T03:55:08;8.43;;;7.20;;
13463;SDS011;6804;48.774;9.174;2022-07-22T03:57:40;7.87;;;7.20;;
13463;SDS011;6804;48.774;9.174;2022-07-22T04:00:08;9.60;;;7.90;;
13463;SDS011;6804;48.774;9.174;2022-07-22T04:02:36;8.17;;;7.47;;
13463;SDS011;6804;48.774;9.174;2022-07-22T04:05:05;8.00;;;7.20;;
13463;SDS011;6804;48.774;9.174;2022-07-22T04:07:33;7.30;;;6.60;;
13463;SDS011;6804;48.774;9.174;2022-07-22T04:10:01;9.00;;;8.20;;
13463;SDS011;6804;48.774;9.174;2022-07-22T04:12:32;9.63;;;7.17;;
13463;SDS011;6804;48.774;9.174;2022-07-22T04:15:00;7.97;;;7.20;;
13463;SDS011;6804;48.774;9.174;2022-07-22T04:17:27;8.40;;;7.47;;
13463;SDS011;6804;48.774;9.174;2022-07-22T04:19:56;8.33;;;7.53;;
13463;SDS011;6804;48.774;9.174;2022-07-22T04:22:24;8.50;;;7.70;;
13463;SDS011;6804;48.774;9.174;2022-07-22T04:24:51;8.17;;;7.33;;
13463;SDS011;6804;48.774;9.174;2022-07-22T04:27:20;8.17;;;7.07;;
13463;SDS011;6804;48.774;9.174;2022-07-22T04:29:48;8.97;;;7.37;;
13463;SDS011;6804;48.774;9.174;2022-07-22T04:32:18;8.07;;;7.03;;
13463;SDS011;6804;48.774;9.174;2022-07-22T04:34:47;7.57;;;6.87;;
13463;SDS011;6804;48.774;9.174;2022-07-22T04:37:15;8.30;;;7.37;;
13463;SDS011;6804;48.774;9.174;2022-07-22T04:39:42;8.27;;;7.00;;
13463;SDS011;6804;48.774;9.174;2022-07-22T04:42:09;8.73;;;7.37;;
13463;SDS011;6804;48.774;9.174;2022-07-22T04:44:41;7.67;;;6.93;;
13463;SDS011;6804;48.774;9.174;2022-07-22T04:47:12;7.90;;;6.90;;
13463;SDS011;6804;48.774;9.174;2022-07-22T04:49:42;8.43;;;7.50;;
13463;SDS011;6804;48.774;9.174;2022-07-22T04:52:09;7.50;;;6.80;;
13463;SDS011;6804;48.774;9.174;2022-07-22T04:54:37;8.18;;;7.38;;
13463;SDS011;6804;48.774;9.174;2022-07-22T04:57:04;8.30;;;7.50;;
13463;SDS011;6804;48.774;9.174;2022-07-22T04:59:34;8.45;;;7.40;;
13463;SDS011;6804;48.774;9.174;2022-07-22T05:02:02;8.57;;;7.47;;
13463;SDS011;6804;48.774;9.174;2022-07-22T05:04:32;8.27;;;7.40;;
13463;SDS011;6804;48.774;9.174;2022-07-22T05:07:02;7.93;;;7.10;;
13463;SDS011;6804;48.774;9.174;2022-07-22T05:09:29;8.10;;;6.97;;
13463;SDS011;6804;48.774;9.174;2022-07-22T05:11:59;7.97;;;6.90;;
13463;SDS011;6804;48.774;9.174;2022-07-22T05:14:27;8.60;;;7.80;;
13463;SDS011;6804;48.774;9.174;2022-07-22T05:16:56;8.45;;;7.60;;
13463;SDS011;6804;48.774;9.174;2022-07-22T05:19:25;7.40;;;6.70;;
13463;SDS011;6804;48.774;9.174;2022-07-22T05:21:52;7.88;;;7.13;;
13463;SDS011;6804;48.774;9.174;2022-07-22T05:24:20;9.85;;;7.82;;
13463;SDS011;6804;48.774;9.174;2022-07-22T05:26:57;7.90;;;7.07;;
13463;SDS011;6804;48.774;9.174;2022-07-22T05:29:24;8.10;;;7.30;;
13463;SDS011;6804;48.774;9.174;2022-07-22T05:31:51;7.93;;;7.15;;
13463;SDS011;6804;48.774;9.174;2022-07-22T05:34:19;8.23;;;7.38;;
13463;SDS011;6804;48.774;9.174;2022-07-22T05:36:50;9.70;;;7.15;;
13463;SDS011;6804;48.774;9.174;2022-07-22T05:39:20;9.60;;;8.57;;
13463;SDS011;6804;48.774;9.174;2022-07-22T05:41:52;7.88;;;7.07;;
13463;SDS011;6804;48.774;9.174;2022-07-22T05:44:19;8.05;;;7.30;;
13463;SDS011;6804;48.774;9.174;2022-07-22T05:46:49;10.80;;;7.90;;
13463;SDS011;6804;48.774;9.174;2022-07-22T05:49:17;9.10;;;8.18;;
13463;SDS011;6804;48.774;9.174;2022-07-22T05:51:44;8.40;;;7.60;;
13463;SDS011;6804;48.774;9.174;2022-07-22T05:54:13;9.25;;;7.85;;
13463;SDS011;6804;48.774;9.174;2022-07-22T05:56:41;8.65;;;7.85;;
13463;SDS011;6804;48.774;9.174;2022-07-22T05:59:11;9.23;;;8.43;;
13463;SDS011;6804;48.774;9.174;2022-07-22T06:01:41;9.43;;;8.43;;
13463;SDS011;6804;48.774;9.174;2022-07-22T06:04:09;9.05;;;8.15;;
13463;SDS011;6804;48.774;9.174;2022-07-22T06:06:37;10.98;;;8.70;;
13463;SDS011;6804;48.774;9.174;2022-07-22T06:09:05;9.55;;;8.48;;
13463;SDS011;6804;48.774;9.174;2022-07-22T06:11:34;10.65;;;8.43;;
13463;SDS011;6804;48.774;9.174;2022-07-22T06:14:01;8.80;;;8.00;;
13463;SDS011;6804;48.774;9.174;2022-07-22T06:16:29;10.60;;;9.50;;
13463;SDS011;6804;48.774;9.174;2022-07-22T06:18:59;10.50;;;8.88;;
13463;SDS011;6804;48.774;9.174;2022-07-22T06:21:26;10.20;;;9.40;;
13463;SDS011;6804;48.774;9.174;2022-07-22T06:23:54;10.57;;;9.27;;
13463;SDS011;6804;48.774;9.174;2022-07-22T06:26:24;9.57;;;8.68;;
13463;SDS011;6804;48.774;9.174;2022-07-22T06:28:56;10.30;;;8.77;;
13463;SDS011;6804;48.774;9.174;2022-07-22T06:31:24;10.80;;;8.27;;
13463;SDS011;6804;48.774;9.174;2022-07-22T06:33:54;15.02;;;8.82;;
13463;SDS011;6804;48.774;9.174;2022-07-22T06:36:24;10.02;;;8.48;;
13463;SDS011;6804;48.774;9.174;2022-07-22T06:38:52;9.40;;;8.45;;
13463;SDS011;6804;48.774;9.174;2022-07-22T06:41:21;10.10;;;8.93;;
13463;SDS011;6804;48.774;9.174;2022-07-22T06:43:49;9.25;;;7.65;;
13463;SDS011;6804;48.774;9.174;2022-07-22T06:46:18;10.15;;;9.00;;
13463;SDS011;6804;48.774;9.174;2022-07-22T06:48:45;11.90;;;9.73;;
13463;SDS011;6804;48.774;9.174;2022-07-22T06:51:15;10.43;;;9.20;;
13463;SDS011;6804;48.774;9.174;2022-07-22T06:53:46;11.75;;;9.85;;
13463;SDS011;6804;48.774;9.174;2022-07-22T06:56:13;10.75;;;8.68;;
13463;SDS011;6804;48.774;9.174;2022-07-22T06:58:43;10.30;;;9.30;;
13463;SDS011;6804;48.774;9.174;2022-07-22T07:01:10;10.57;;;9.40;;
13463;SDS011;6804;48.774;9.174;2022-07-22T07:03:42;9.70;;;8.23;;
13463;SDS011;6804;48.774;9.174;2022-07-22T07:06:10;10.48;;;8.93;;
13463;SDS011;6804;48.774;9.174;2022-07-22T07:08:38;11.20;;;9.43;;
13463;SDS011;6804;48.774;9.174;2022-07-22T07:11:06;12.38;;;9.90;;
13463;SDS011;6804;48.774;9.174;2022-07-22T07:13:37;10.50;;;9.30;;
13463;SDS011;6804;48.774;9.174;2022-07-22T07:16:07;9.95;;;8.95;;
13463;SDS011;6804;48.774;9.174;2022-07-22T07:18:35;9.82;;;8.80;;
13463;SDS011;6804;48.774;9.174;2022-07-22T07:21:07;9.85;;;9.02;;
13463;SDS011;6804;48.774;9.174;2022-07-22T07:23:37;10.32;;;8.98;;
13463;SDS011;6804;48.774;9.174;2022-07-22T07:26:06;9.88;;;9.05;;
13463;SDS011;6804;48.774;9.174;2022-07-22T07:28:34;9.90;;;7.72;;
13463;SDS011;6804;48.774;9.174;2022-07-22T07:31:04;8.52;;;7.50;;
13463;SDS011;6804;48.774;9.174;2022-07-22T07:33:35;10.57;;;9.50;;
13463;SDS011;6804;48.774;9.174;2022-07-22T07:36:07;11.02;;;9.70;;
13463;SDS011;6804;48.774;9.174;2022-07-22T07:38:37;10.85;;;9.07;;
13463;SDS011;6804;48.774;9.174;2022-07-22T07:41:04;10.38;;;9.38;;
13463;SDS011;6804;48.774;9.174;2022-07-22T07:43:32;9.27;;;8.38;;
13463;SDS011;6804;48.774;9.174;2022-07-22T07:46:02;9.60;;;8.70;;
13463;SDS011;6804;48.774;9.174;2022-07-22T07:48:30;9.50;;;8.60;;
13463;SDS011;6804;48.774;9.174;2022-07-22T07:51:00;8.98;;;7.57;;
13463;SDS011;6804;48.774;9.174;2022-07-22T07:53:31;10.70;;;8.27;;
13463;SDS011;6804;48.774;9.174;2022-07-22T07:55:59;11.82;;;8.70;;
13463;SDS011;6804;48.774;9.174;2022-07-22T07:58:26;9.82;;;8.93;;
13463;SDS011;6804;48.774;9.174;2022-07-22T08:00:56;10.07;;;7.70;;
13463;SDS011;6804;48.774;9.174;2022-07-22T08:03:24;10.73;;;9.05;;
13463;SDS011;6804;48.774;9.174;2022-07-22T08:05:52;9.82;;;7.95;;
13463;SDS011;6804;48.774;9.174;2022-07-22T08:08:19;9.82;;;8.77;;
13463;SDS011;6804;48.774;9.174;2022-07-22T08:10:48;9.95;;;8.55;;
13463;SDS011;6804;48.774;9.174;2022-07-22T08:13:15;11.43;;;10.23;;
13463;SDS011;6804;48.774;9.174;2022-07-22T08:15:43;9.90;;;8.90;;
13463;SDS011;6804;48.774;9.174;2022-07-22T08:18:13;9.57;;;8.60;;
13463;SDS011;6804;48.774;9.174;2022-07-22T08:20:41;10.38;;;9.48;;
13463;SDS011;6804;48.774;9.174;2022-07-22T08:23:08;11.52;;;9.30;;
13463;SDS011;6804;48.774;9.174;2022-07-22T08:25:35;9.45;;;8.57;;
13463;SDS011;6804;48.774;9.174;2022-07-22T08:28:05;11.00;;;9.82;;
13463;SDS011;6804;48.774;9.174;2022-07-22T08:30:33;10.40;;;8.93;;
13463;SDS011;6804;48.774;9.174;2022-07-22T08:33:00;9.05;;;8.02;;
13463;SDS011;6804;48.774;9.174;2022-07-22T08:35:29;9.95;;;8.95;;
13463;SDS011;6804;48.774;9.174;2022-07-22T08:37:57;9.50;;;8.55;;
13463;SDS011;6804;48.774;9.174;2022-07-22T08:40:24;8.90;;;7.60;;
13463;SDS011;6804;48.774;9.174;2022-07-22T08:42:52;9.65;;;8.80;;
13463;SDS011;6804;48.774;9.174;2022-07-22T08:45:21;8.77;;;7.88;;
13463;SDS011;6804;48.774;9.174;2022-07-22T08:47:49;8.98;;;8.15;;
13463;SDS011;6804;48.774;9.174;2022-07-22T08:50:18;11.48;;;9.40;;
13463;SDS011;6804;48.774;9.174;2022-07-22T08:52:48;10.43;;;9.20;;
13463;SDS011;6804;48.774;9.174;2022-07-22T08:55:16;8.63;;;7.45;;
13463;SDS011;6804;48.774;9.174;2022-07-22T08:57:46;8.88;;;7.97;;
13463;SDS011;6804;48.774;9.174;2022-07-22T09:00:16;9.38;;;8.57;;
13463;SDS011;6804;48.774;9.174;2022-07-22T09:02:49;8.25;;;7.43;;
13463;SDS011;6804;48.774;9.174;2022-07-22T09:05:17;8.73;;;7.90;;
13463;SDS011;6804;48.774;9.174;2022-07-22T09:07:44;7.80;;;7.00;;
13463;SDS011;6804;48.774;9.174;2022-07-22T09:10:15;8.30;;;7.60;;
13463;SDS011;6804;48.774;9.174;2022-07-22T09:12:52;8.60;;;7.45;;
13463;SDS011;6804;48.774;9.174;2022-07-22T09:15:25;9.90;;;6.93;;
13463;SDS011;6804;48.774;9.174;2022-07-22T09:17:56;8.77;;;7.40;;
13463;SDS011;6804;48.774;9.174;2022-07-22T09:20:29;7.80;;;7.13;;
13463;SDS011;6804;48.774;9.174;2022-07-22T09:22:59;8.52;;;6.90;;
13463;SDS011;6804;48.774;9.174;2022-07-22T09:25:29;8.90;;;8.00;;
13463;SDS011;6804;48.774;9.174;2022-07-22T09:28:09;8.85;;;7.85;;
13463;SDS011;6804;48.774;9.174;2022-07-22T09:30:39;8.95;;;7.88;;
13463;SDS011;6804;48.774;9.174;2022-07-22T09:33:13;9.25;;;7.05;;
13463;SDS011;6804;48.774;9.174;2022-07-22T09:35:43;8.77;;;7.88;;
13463;SDS011;6804;48.774;9.174;2022-07-22T09:38:11;7.50;;;6.82;;
13463;SDS011;6804;48.774;9.174;2022-07-22T09:40:40;9.13;;;8.30;;
13463;SDS011;6804;48.774;9.174;2022-07-22T09:43:09;16.02;;;13.85;;
13463;SDS011;6804;48.774;9.174;2022-07-22T09:45:44;9.98;;;8.25;;
13463;SDS011;6804;48.774;9.174;2022-07-22T09:48:14;8.65;;;7.90;;
13463;SDS011;6804;48.774;9.174;2022-07-22T09:50:44;8.63;;;7.82;;
13463;SDS011;6804;48.774;9.174;2022-07-22T09:53:12;8.98;;;7.35;;
13463;SDS011;6804;48.774;9.174;2022-07-22T09:55:40;7.80;;;7.10;;
13463;SDS011;6804;48.774;9.174;2022-07-22T09:58:10;7.80;;;7.10;;
13463;SDS011;6804;48.774;9.174;2022-07-22T10:00:41;8.10;;;7.30;;
13463;SDS011;6804;48.774;9.174;2022-07-22T10:03:11;7.82;;;6.60;;
13463;SDS011;6804;48.774;9.174;2022-07-22T10:05:46;10.07;;;6.70;;
13463;SDS011;6804;48.774;9.174;2022-07-22T10:08:16;6.60;;;6.00;;
13463;SDS011;6804;48.774;9.174;2022-07-22T10:10:47;8.43;;;7.30;;
13463;SDS011;6804;48.774;9.174;2022-07-22T10:13:18;9.10;;;6.95;;
13463;SDS011;6804;48.774;9.174;2022-07-22T10:15:49;7.68;;;6.97;;
13463;SDS011;6804;48.774;9.174;2022-07-22T10:18:19;7.63;;;6.85;;
13463;SDS011;6804;48.774;9.174;2022-07-22T10:20:47;7.30;;;6.60;;
13463;SDS011;6804;48.774;9.174;2022-07-22T10:23:28;7.82;;;7.15;;
13463;SDS011;6804;48.774;9.174;2022-07-22T10:26:02;6.80;;;6.20;;
13463;SDS011;6804;48.774;9.174;2022-07-22T10:28:30;6.95;;;6.30;;
13463;SDS011;6804;48.774;9.174;2022-07-22T10:31:17;7.50;;;6.80;;
13463;SDS011;6804;48.774;9.174;2022-07-22T10:33:51;8.45;;;7.07;;
13463;SDS011;6804;48.774;9.174;2022-07-22T10:36:29;7.40;;;6.32;;
13463;SDS011;6804;48.774;9.174;2022-07-22T10:39:03;7.32;;;6.03;;
13463;SDS011;6804;48.774;9.174;2022-07-22T10:41:33;7.80;;;7.00;;
13463;SDS011;6804;48.774;9.174;2022-07-22T10:44:01;8.00;;;7.28;;
13463;SDS011;6804;48.774;9.174;2022-07-22T10:46:47;7.22;;;6.63;;
13463;SDS011;6804;48.774;9.174;2022-07-22T10:49:24;7.15;;;6.55;;
13463;SDS011;6804;48.774;9.174;2022-07-22T10:52:13;7.55;;;6.85;;
13463;SDS011;6804;48.774;9.174;2022-07-22T10:57:47;8.52;;;6.85;;
13463;SDS011;6804;48.774;9.174;2022-07-22T11:00:17;8.00;;;6.50;;
13463;SDS011;6804;48.774;9.174;2022-07-22T11:02:47;7.00;;;6.40;;
13463;SDS011;6804;48.774;9.174;2022-07-22T11:05:16;6.82;;;6.25;;
13463;SDS011;6804;48.774;9.174;2022-07-22T11:07:51;9.00;;;8.15;;
13463;SDS011;6804;48.774;9.174;2022-07-22T11:10:19;7.32;;;6.63;;
13463;SDS011;6804;48.774;9.174;2022-07-22T11:12:52;7.05;;;6.45;;
13463;SDS011;6804;48.774;9.174;2022-07-22T11:15:24;6.55;;;5.88;;
13463;SDS011;6804;48.774;9.174;2022-07-22T11:17:55;6.43;;;5.85;;
13463;SDS011;6804;48.774;9.174;2022-07-22T11:20:28;7.65;;;7.05;;
13463;SDS011;6804;48.774;9.174;2022-07-22T11:22:58;6.63;;;6.03;;
13463;SDS011;6804;48.774;9.174;2022-07-22T11:25:30;7.72;;;6.80;;
13463;SDS011;6804;48.774;9.174;2022-07-22T11:28:06;6.90;;;6.30;;
13463;SDS011;6804;48.774;9.174;2022-07-22T11:30:34;7.13;;;6.43;;
13463;SDS011;6804;48.774;9.174;2022-07-22T11:33:01;6.95;;;6.20;;
13463;SDS011;6804;48.774;9.174;2022-07-22T11:35:30;6.63;;;5.80;;
13463;SDS011;6804;48.774;9.174;2022-07-22T11:38:02;7.35;;;6.65;;
13463;SDS011;6804;48.774;9.174;2022-07-22T11:40:33;8.73;;;6.18;;
13463;SDS011;6804;48.774;9.174;2022-07-22T11:43:01;6.05;;;5.45;;
13463;SDS011;6804;48.774;9.174;2022-07-22T11:45:29;6.47;;;5.88;;
13463;SDS011;6804;48.774;9.174;2022-07-22T11:48:07;5.95;;;5.40;;
13463;SDS011;6804;48.774;9.174;2022-07-22T11:50:36;6.20;;;5.60;;
13463;SDS011;6804;48.774;9.174;2022-07-22T11:53:03;5.93;;;5.40;;
13463;SDS011;6804;48.774;9.174;2022-07-22T11:55:37;6.53;;;5.93;;
13463;SDS011;6804;48.774;9.174;2022-07-22T11:58:06;6.97;;;5.55;;
13463;SDS011;6804;48.774;9.174;2022-07-22T12:00:34;5.07;;;4.57;;
13463;SDS011;6804;48.774;9.174;2022-07-22T12:03:02;6.95;;;6.30;;
13463;SDS011;6804;48.774;9.174;2022-07-22T12:05:34;6.43;;;5.38;;
13463;SDS011;6804;48.774;9.174;2022-07-22T12:08:03;5.70;;;5.20;;
13463;SDS011;6804;48.774;9.174;2022-07-22T12:10:31;7.05;;;6.40;;
13463;SDS011;6804;48.774;9.174;2022-07-22T12:12:59;6.00;;;5.55;;
13463;SDS011;6804;48.774;9.174;2022-07-22T12:15:28;5.50;;;5.00;;
13463;SDS011;6804;48.774;9.174;2022-07-22T12:18:14;4.93;;;4.53;;
13463;SDS011;6804;48.774;9.174;2022-07-22T12:20:44;5.50;;;4.85;;
13463;SDS011;6804;48.774;9.174;2022-07-22T12:23:12;5.50;;;5.00;;
13463;SDS011;6804;48.774;9.174;2022-07-22T12:25:52;5.40;;;5.00;;
13463;SDS011;6804;48.774;9.174;2022-07-22T12:28:24;5.13;;;4.72;;
13463;SDS011;6804;48.774;9.174;2022-07-22T12:30:53;5.80;;;5.30;;
13463;SDS011;6804;48.774;9.174;2022-07-22T12:33:25;6.43;;;5.22;;
13463;SDS011;6804;48.774;9.174;2022-07-22T12:36:01;6.28;;;5.35;;
13463;SDS011;6804;48.774;9.174;2022-07-22T12:38:30;5.90;;;4.65;;
13463;SDS011;6804;48.774;9.174;2022-07-22T12:43:50;5.60;;;4.93;;
13463;SDS011;6804;48.774;9.174;2022-07-22T12:46:18;5.38;;;4.68;;
13463;SDS011;6804;48.774;9.174;2022-07-22T12:48:50;6.15;;;4.95;;
13463;SDS011;6804;48.774;9.174;2022-07-22T12:51:19;5.93;;;5.32;;
13463;SDS011;6804;48.774;9.174;2022-07-22T12:53:47;5.88;;;5.38;;
13463;SDS011;6804;48.774;9.174;2022-07-22T12:56:14;7.57;;;5.35;;
13463;SDS011;6804;48.774;9.174;2022-07-22T12:58:42;6.68;;;5.78;;
13463;SDS011;6804;48.774;9.174;2022-07-22T13:01:13;5.78;;;5.05;;
13463;SDS011;6804;48.774;9.174;2022-07-22T13:03:44;6.68;;;5.28;;
13463;SDS011;6804;48.774;9.174;2022-07-22T13:06:14;7.38;;;5.82;;
13463;SDS011;6804;48.774;9.174;2022-07-22T13:08:43;7.88;;;5.45;;
13463;SDS011;6804;48.774;9.174;2022-07-22T13:11:11;5.88;;;5.35;;
13463;SDS011;6804;48.774;9.174;2022-07-22T13:13:39;5.60;;;4.90;;
13463;SDS011;6804;48.774;9.174;2022-07-22T13:16:07;7.82;;;5.28;;
13463;SDS011;6804;48.774;9.174;2022-07-22T13:18:36;5.72;;;4.82;;
13463;SDS011;6804;48.774;9.174;2022-07-22T13:21:07;6.28;;;5.18;;
13463;SDS011;6804;48.774;9.174;2022-07-22T13:23:35;9.15;;;5.50;;
13463;SDS011;6804;48.774;9.174;2022-07-22T13:26:07;6.13;;;5.53;;
13463;SDS011;6804;48.774;9.174;2022-07-22T13:28:34;5.35;;;4.85;;
13463;SDS011;6804;48.774;9.174;2022-07-22T13:31:08;5.68;;;5.15;;
13463;SDS011;6804;48.774;9.174;2022-07-22T13:33:39;4.93;;;4.47;;
13463;SDS011;6804;48.774;9.174;2022-07-22T13:36:06;5.30;;;4.80;;
13463;SDS011;6804;48.774;9.174;2022-07-22T13:38:41;5.30;;;4.90;;
13463;SDS011;6804;48.774;9.174;2022-07-22T13:41:11;5.50;;;5.00;;
13463;SDS011;6804;48.774;9.174;2022-07-22T13:43:43;4.88;;;4.40;;
13463;SDS011;6804;48.774;9.174;2022-07-22T13:46:18;4.90;;;4.40;;
13463;SDS011;6804;48.774;9.174;2022-07-22T13:48:46;5.25;;;4.85;;
13463;SDS011;6804;48.774;9.174;2022-07-22T13:51:17;6.32;;;4.90;;
13463;SDS011;6804;48.774;9.174;2022-07-22T13:53:44;5.47;;;4.97;;
13463;SDS011;6804;48.774;9.174;2022-07-22T13:56:14;5.65;;;5.05;;
13463;SDS011;6804;48.774;9.174;2022-07-22T13:58:44;5.38;;;4.88;;
13463;SDS011;6804;48.774;9.174;2022-07-22T14:01:12;5.18;;;4.68;;
13463;SDS011;6804;48.774;9.174;2022-07-22T14:03:40;5.47;;;5.03;;
13463;SDS011;6804;48.774;9.174;2022-07-22T14:06:08;5.57;;;5.10;;
13463;SDS011;6804;48.774;9.174;2022-07-22T14:08:36;5.35;;;4.88;;
13463;SDS011;6804;48.774;9.174;2022-07-22T14:11:04;4.95;;;4.47;;
13463;SDS011;6804;48.774;9.174;2022-07-22T14:13:33;4.57;;;4.18;;
13463;SDS011;6804;48.774;9.174;2022-07-22T14:16:03;4.95;;;4.55;;
13463;SDS011;6804;48.774;9.174;2022-07-22T14:18:45;5.82;;;5.22;;
13463;SDS011;6804;48.774;9.174;2022-07-22T14:21:22;6.95;;;4.72;;
13463;SDS011;6804;48.774;9.174;2022-07-22T14:23:53;5.25;;;4.78;;
13463;SDS011;6804;48.774;9.174;2022-07-22T14:26:21;5.15;;;4.75;;
13463;SDS011;6804;48.774;9.174;2022-07-22T14:28:49;4.82;;;4.38;;
13463;SDS011;6804;48.774;9.174;2022-07-22T14:31:17;5.43;;;4.65;;
13463;SDS011;6804;48.774;9.174;2022-07-22T14:33:45;6.15;;;5.53;;
13463;SDS011;6804;48.774;9.174;2022-07-22T14:36:13;6.22;;;5.10;;
13463;SDS011;6804;48.774;9.174;2022-07-22T14:38:44;5.60;;;5.20;;
13463;SDS011;6804;48.774;9.174;2022-07-22T14:41:18;5.20;;;4.80;;
13463;SDS011;6804;48.774;9.174;2022-07-22T14:43:46;4.80;;;4.40;;
13463;SDS011;6804;48.774;9.174;2022-07-22T14:46:18;5.75;;;5.05;;
13463;SDS011;6804;48.774;9.174;2022-07-22T14:48:46;5.20;;;4.70;;
13463;SDS011;6804;48.774;9.174;2022-07-22T14:51:18;5.45;;;4.95;;
13463;SDS011;6804;48.774;9.174;2022-07-22T14:53:47;6.65;;;5.10;;
13463;SDS011;6804;48.774;9.174;2022-07-22T14:56:18;5.97;;;4.93;;
13463;SDS011;6804;48.774;9.174;2022-07-22T14:58:45;5.40;;;4.90;;
13463;SDS011;6804;48.774;9.174;2022-07-22T15:01:17;4.80;;;4.38;;
13463;SDS011;6804;48.774;9.174;2022-07-22T15:03:45;5.53;;;4.93;;
13463;SDS011;6804;48.774;9.174;2022-07-22T15:06:15;5.00;;;4.60;;
13463;SDS011;6804;48.774;9.174;2022-07-22T15:08:42;5.72;;;5.00;;
13463;SDS011;6804;48.774;9.174;2022-07-22T15:11:10;6.50;;;5.90;;
13463;SDS011;6804;48.774;9.174;2022-07-22T15:13:37;5.07;;;4.68;;
13463;SDS011;6804;48.774;9.174;2022-07-22T15:16:08;5.47;;;4.97;;
13463;SDS011;6804;48.774;9.174;2022-07-22T15:18:39;5.07;;;4.68;;
13463;SDS011;6804;48.774;9.174;2022-07-22T15:21:07;5.55;;;5.03;;